TED STEVENS ANCHORAGE INTL

PANC (ANC)
Anchorage, Alaska
Towered

Vatsim Metar:
PANC 291753Z 05003KT 10SM SCT120 M05/M06 A3048 RMK AO2 SLP326 4/021 I6000 T10501061 11044 21072 58012

No ATC Online

Traffic

Inbound:
Ident
Type
Name
ETA
Phase
GTI8630
B748
1206503 EGSS
Deplaning
UAL2223
B744
Alex Retterer KIAH
19:00 Z
Cruse
UPS98
B748
Eric Alipert KLAX
19:10 Z
Cruse
ASA193
B738
Key Noufi KLAX
22:33 Z
Cruse

Outbound:
Ident
Type
Name
Destination
Phase
LHA249
A346
M.Adams EDDK
KSFO
Boarding
FDX5921
B763
Kyle Alley KSEA
KMEM
Boarding